Mustafa Dayi — TCZF2 — position and weather

sailwx.info

Track history (hours):
 
Tides and Currents Weather Stations Pressure Air Temp Water Temp Dewpoint Dewpoint Depression Visibility Wind Speed Wind Dir Waves Ship Positions

Mustafa Dayi

Last reported at 2018-Jan-22 16:31 UTC. Time now 2018-Jan-23 04:26 UTC.
Position N 37°52' E 026°15'.

Length 183 m; draft 10.5 m.

Type: Ship. MMSI: 271042433.

Date/timePositionNaut miles runAvg speedWind from/ knotsBaromVisibWave heightAir tempDewpointWater temp
2018-Jan-22 16:31N 37°52' E 026°15'014.0
2018-Jan-22 16:30N 37°52' E 026°15'713.8
2018-Jan-22 16:01N 37°48' E 026°22'713.8
2018-Jan-22 15:30N 37°43' E 026°29'715.0
2018-Jan-22 15:01N 37°38' E 026°36'815.4
2018-Jan-22 14:29N 37°31' E 026°41'715.0
2018-Jan-22 14:01N 37°26' E 026°47'715.0
2018-Jan-22 13:31N 37°20' E 026°53'4312.3
2018-Jan-22 09:59N 36°42' E 027°19'1313.8
2018-Jan-22 09:03N 36°34' E 027°32'115.2
2018-Jan-22 09:00N 36°34' E 027°32'14315.1
2018-Jan-21 23:34N 36°01' E 030°24'  
Track history (hours):
 
Tides and Currents Weather Stations Pressure Air Temp Water Temp Dewpoint Dewpoint Depression Visibility Wind Speed Wind Dir Waves Ship Positions

Mustafa Dayi

Last reported at 2018-Jan-22 16:31 UTC. Time now 2018-Jan-23 04:26 UTC.
Position N 37°52' E 026°15'.

Length 183 m; draft 10.5 m.

Type: Ship. MMSI: 271042433.

Date/timePositionNaut miles runAvg speedWind from/ knotsBaromVisibWave heightAir tempDewpointWater temp
2018-Jan-22 16:31N 37°52' E 026°15'014.0
2018-Jan-22 16:30N 37°52' E 026°15'713.8
2018-Jan-22 16:01N 37°48' E 026°22'713.8
2018-Jan-22 15:30N 37°43' E 026°29'715.0
2018-Jan-22 15:01N 37°38' E 026°36'815.4
2018-Jan-22 14:29N 37°31' E 026°41'715.0
2018-Jan-22 14:01N 37°26' E 026°47'715.0
2018-Jan-22 13:31N 37°20' E 026°53'4312.3
2018-Jan-22 09:59N 36°42' E 027°19'1313.8
2018-Jan-22 09:03N 36°34' E 027°32'115.2
2018-Jan-22 09:00N 36°34' E 027°32'14315.1
2018-Jan-21 23:34N 36°01' E 030°24'  

Dump ship's entire track history